Time;durP1;ratioP1;P1;durP2;ratioP2;P2;SDS_P1;SDS_P2;PMS_P1;PMS_P2;Temp;Humidity;BMP_temperature;BMP_pressure;BME280_temperature;BME280_humidity;BME280_pressure;Samples;Min_cycle;Max_cycle;Signal;HPM_P1;HPM_P2
2022/06/17 06:27:11;;;;;;;;;7.00;7.00;;;;;25.98;73.11;101542.88;6318229;22;46432;-96
2022/06/17 06:29:37;;;;;;;;;5.00;5.00;;;;;26.09;72.33;101556.28;6306624;22;45515;-92
2022/06/17 06:32:02;;;;;;;;;8.33;8.00;;;;;26.17;71.91;101575.06;6306883;22;48028;-95
2022/06/17 06:34:27;;;;;;;;;7.00;7.00;;;;;26.23;72.11;101574.13;6333519;22;45409;-93
2022/06/17 06:36:53;;;;;;;;;11.67;7.00;;;;;26.31;71.91;101572.22;6335045;22;49218;-92
2022/06/17 06:39:18;;;;;;;;;6.67;6.67;;;;;26.39;70.94;101595.53;6305735;22;62752;-95
2022/06/17 06:41:43;;;;;;;;;7.67;7.00;;;;;26.44;71.41;101588.34;6306343;22;47135;-92
2022/06/17 06:44:08;;;;;;;;;7.67;7.67;;;;;26.53;71.16;101609.78;6334800;22;50239;-94
2022/06/17 06:46:34;;;;;;;;;9.33;8.00;;;;;26.60;70.54;101615.09;6333142;22;48049;-93
2022/06/17 06:48:59;;;;;;;;;8.00;7.33;;;;;26.67;70.73;101601.59;6334998;22;45275;-94
2022/06/17 06:51:25;;;;;;;;;9.00;9.00;;;;;26.76;71.31;101600.63;6306917;22;59946;-94
2022/06/17 06:53:50;;;;;;;;;7.67;7.67;;;;;26.83;70.67;101609.53;6309425;22;45210;-93
2022/06/17 06:56:15;;;;;;;;;6.67;6.67;;;;;26.90;70.16;101621.16;6340863;22;45560;-93
2022/06/17 06:58:41;;;;;;;;;9.67;7.67;;;;;26.97;69.88;101636.34;6308976;22;45316;-93
2022/06/17 07:01:06;;;;;;;;;6.00;6.00;;;;;27.03;69.50;101654.25;6333912;22;53822;-94
2022/06/17 07:03:32;;;;;;;;;8.00;6.00;;;;;27.10;69.15;101657.75;6335536;22;45844;-95
2022/06/17 07:06:00;;;;;;;;;7.67;7.67;;;;;27.16;69.48;101660.41;6333589;22;45516;-95
2022/06/17 07:08:29;;;;;;;;;7.00;7.00;;;;;27.22;69.22;101660.38;6335836;22;45280;-94
2022/06/17 07:10:59;;;;;;;;;7.00;7.00;;;;;27.33;68.97;101676.44;6332799;22;48073;-88
2022/06/17 07:13:25;;;;;;;;;7.00;7.00;;;;;27.41;68.90;101676.34;6333792;22;45288;-88
2022/06/17 07:15:52;;;;;;;;;7.33;7.33;;;;;27.51;68.98;101678.94;6301418;22;45390;-88
2022/06/17 07:18:21;;;;;;;;;5.67;5.67;;;;;27.60;68.66;101686.91;6329870;22;45252;-87
2022/06/17 07:20:50;;;;;;;;;5.67;4.67;;;;;27.65;68.88;101668.88;6357028;22;46939;-88
2022/06/17 07:23:21;;;;;;;;;7.00;7.00;;;;;27.79;69.30;101665.13;6332281;22;45348;-88
2022/06/17 07:25:48;;;;;;;;;7.00;7.00;;;;;27.86;69.72;101655.16;6354257;22;45269;-87
2022/06/17 07:28:16;;;;;;;;;8.00;8.00;;;;;27.96;68.90;101678.41;6332264;22;45840;-90
2022/06/17 07:30:44;;;;;;;;;10.00;9.00;;;;;28.03;68.27;101690.03;6307990;22;47254;-91
2022/06/17 07:33:10;;;;;;;;;8.33;7.00;;;;;28.13;67.74;101714.19;6331526;22;45351;-91
2022/06/17 07:35:38;;;;;;;;;8.33;8.33;;;;;28.21;68.19;101714.97;6330710;22;45357;-91
2022/06/17 07:40:47;;;;;;;;;7.33;7.33;;;;;28.34;68.68;101705.78;6331448;22;45402;-91
2022/06/17 07:43:14;;;;;;;;;7.67;7.00;;;;;28.45;68.27;101707.47;6300774;22;45393;-91
2022/06/17 07:45:40;;;;;;;;;8.00;8.00;;;;;28.52;68.36;101713.66;6304074;22;45538;-90
2022/06/17 07:48:06;;;;;;;;;10.00;10.00;;;;;28.58;67.76;101735.16;6332371;22;45343;-90
2022/06/17 07:50:33;;;;;;;;;11.67;9.67;;;;;28.71;67.01;101753.91;6331171;22;45476;-89
2022/06/17 07:52:59;;;;;;;;;9.67;9.00;;;;;28.74;66.82;101753.81;6329733;22;45859;-90
2022/06/17 07:55:24;;;;;;;;;8.00;8.00;;;;;28.89;66.54;101777.91;6332631;22;45360;-92
2022/06/17 07:57:50;;;;;;;;;8.00;7.00;;;;;29.01;65.84;101808.38;6333032;22;45328;-91
2022/06/17 08:00:23;;;;;;;;;8.00;8.00;;;;;29.11;65.71;101817.25;6332139;22;46892;-91
2022/06/17 08:02:49;;;;;;;;;8.33;8.33;;;;;29.13;65.80;101785.69;6304737;22;45345;-90
2022/06/17 08:05:15;;;;;;;;;10.00;10.00;;;;;29.29;65.64;101804.34;6336625;22;45411;-90
2022/06/17 08:07:41;;;;;;;;;7.00;7.00;;;;;29.27;64.74;101800.78;6337110;22;45410;-91
2022/06/17 08:10:06;;;;;;;;;6.00;6.00;;;;;29.41;64.92;101819.44;6332157;22;45591;-91
2022/06/17 08:12:32;;;;;;;;;8.67;8.67;;;;;29.45;64.63;101821.19;6332069;22;45498;-91
2022/06/17 08:14:57;;;;;;;;;10.00;8.33;;;;;29.47;64.02;101815.75;6331340;22;45741;-92
2022/06/17 08:17:24;;;;;;;;;9.00;8.00;;;;;29.58;63.67;101824.56;6333657;22;45373;-91
2022/06/17 08:19:52;;;;;;;;;8.00;8.00;;;;;29.65;64.50;101812.72;6332358;22;45566;-91
2022/06/17 08:22:19;;;;;;;;;7.33;7.00;;;;;29.77;64.53;101813.44;6332918;22;45332;-91
2022/06/17 08:24:44;;;;;;;;;6.33;6.00;;;;;29.84;64.21;101806.97;6304480;22;45808;-91
2022/06/17 08:27:09;;;;;;;;;7.67;7.33;;;;;29.95;63.00;101830.22;6331079;22;45749;-91
2022/06/17 08:29:35;;;;;;;;;8.00;7.00;;;;;29.95;63.26;101820.28;6301023;22;47871;-91
2022/06/17 08:32:45;;;;;;;;;8.33;8.33;;;;;30.07;63.40;101829.09;6330939;22;45664;-91
2022/06/17 08:34:46;;;;;;;;;7.67;7.67;;;;;30.19;63.14;101833.38;6331700;22;45383;-91
2022/06/17 08:37:13;;;;;;;;;6.33;6.33;;;;;30.26;62.51;101826.91;6307944;22;45312;-91
2022/06/17 08:39:39;;;;;;;;;8.67;8.67;;;;;30.32;62.60;101812.34;6305652;22;46378;-90
2022/06/17 08:42:25;;;;;;;;;7.00;7.00;;;;;30.51;62.45;101825.53;6340023;22;45236;-91
2022/06/17 08:45:00;;;;;;;;;4.67;4.67;;;;;30.60;61.76;101827.13;6332055;22;45439;-90
2022/06/17 08:47:55;;;;;;;;;7.00;7.00;;;;;30.67;61.56;101821.53;6304861;22;45526;-90
2022/06/17 08:50:45;;;;;;;;;7.00;7.00;;;;;30.82;62.02;101818.53;6331280;22;46666;-90
2022/06/17 08:53:30;;;;;;;;;9.33;9.33;;;;;30.91;62.40;101812.88;6305899;22;45297;-90
2022/06/17 08:56:05;;;;;;;;;6.67;6.33;;;;;31.01;61.12;101832.53;6331159;22;45255;-91
2022/06/17 08:58:52;;;;;;;;;6.33;6.00;;;;;31.08;61.04;101828.75;6332086;22;45353;-90
2022/06/17 09:01:26;;;;;;;;;8.00;8.00;;;;;31.17;61.11;101838.47;6332037;22;45647;-90
2022/06/17 09:03:51;;;;;;;;;8.00;8.00;;;;;31.23;60.29;101835.59;6303020;22;46056;-90
2022/06/17 09:06:29;;;;;;;;;7.67;7.67;;;;;31.33;60.60;101835.38;6331602;22;45838;-88
2022/06/17 09:09:17;;;;;;;;;8.00;6.67;;;;;31.42;58.77;101847.81;6332506;22;45633;-88
2022/06/17 09:12:00;;;;;;;;;8.33;7.00;;;;;31.53;59.56;101829.47;6333810;22;45523;-88
2022/06/17 09:14:58;;;;;;;;;6.00;6.00;;;;;31.71;59.99;101832.63;6308307;22;45710;-88
2022/06/17 09:17:54;;;;;;;;;6.67;6.67;;;;;31.94;59.67;101843.75;6336241;22;45301;-88
2022/06/17 09:20:26;;;;;;;;;8.67;7.67;;;;;32.05;59.16;101838.94;6332656;22;45443;-88
2022/06/17 09:22:57;;;;;;;;;6.00;6.00;;;;;32.20;59.04;101847.59;6332781;22;46537;-88
2022/06/17 09:25:28;;;;;;;;;5.00;5.00;;;;;32.33;59.13;101829.09;6303013;22;45438;-89
2022/06/17 09:27:56;;;;;;;;;8.00;7.33;;;;;32.44;58.64;101836.94;6332506;22;45309;-88
2022/06/17 09:30:33;;;;;;;;;12.00;8.00;;;;;32.56;57.74;101835.66;6334838;22;45435;-86
2022/06/17 09:33:18;;;;;;;;;9.00;6.00;;;;;32.73;58.27;101835.16;6314351;22;46041;-86
2022/06/17 09:35:59;;;;;;;;;7.33;6.33;;;;;32.87;57.94;101845.59;6338024;22;45309;-88
2022/06/17 09:38:49;;;;;;;;;9.00;7.33;;;;;33.10;57.23;101849.41;6332390;22;45424;-87
2022/06/17 09:41:23;;;;;;;;;7.67;7.00;;;;;33.30;57.32;101858.75;6339551;22;45451;-86
2022/06/17 09:44:30;;;;;;;;;7.00;7.00;;;;;33.53;56.71;101856.16;6352890;22;47145;-87
2022/06/17 09:47:19;;;;;;;;;8.00;7.00;;;;;33.63;56.12;101857.63;6337784;22;45462;-83
2022/06/17 09:50:09;;;;;;;;;7.33;7.33;;;;;33.72;56.16;101847.34;6329808;22;45205;-84
2022/06/17 09:52:43;;;;;;;;;7.00;7.00;;;;;33.88;55.50;101850.44;6353173;22;45500;-84
2022/06/17 09:55:55;;;;;;;;;11.00;9.00;;;;;34.79;54.76;101857.97;6331402;22;45413;-83
2022/06/17 09:58:41;;;;;;;;;7.00;7.00;;;;;36.83;55.95;101845.47;6359858;22;44755;-84
2022/06/17 10:01:08;;;;;;;;;6.33;6.00;;;;;38.67;53.88;101854.09;6362587;22;44696;-86
2022/06/17 10:03:54;;;;;;;;;8.00;7.67;;;;;40.47;52.50;101863.50;6333781;22;44808;-85
2022/06/17 10:06:29;;;;;;;;;9.00;9.00;;;;;41.87;51.26;101884.47;6332464;22;46039;-83
2022/06/17 10:09:18;;;;;;;;;10.67;9.33;;;;;43.30;50.47;101880.44;6333530;22;45408;-85
2022/06/17 10:12:03;;;;;;;;;6.33;6.33;;;;;44.87;48.06;101881.78;6349994;22;45283;-83
2022/06/17 10:14:53;;;;;;;;;5.00;5.00;;;;;46.25;46.36;101888.44;6344407;22;45319;-84
2022/06/17 10:20:35;;;;;;;;;6.67;6.67;;;;;48.74;42.38;101885.25;6334517;22;45377;-85
2022/06/17 10:23:19;;;;;;;;;7.00;7.00;;;;;49.52;39.42;101879.16;6348355;22;45528;-85
2022/06/17 10:26:17;;;;;;;;;9.00;6.33;;;;;50.34;39.07;101892.81;6321698;22;45484;-85
2022/06/17 16:59:18;;;;;;;;;8.33;7.67;;;;;37.49;41.55;101614.97;6339557;22;46808;-92
2022/06/17 17:01:54;;;;;;;;;8.33;7.67;;;;;37.33;42.49;101611.22;6359354;22;45567;-87
2022/06/17 17:07:13;;;;;;;;;5.00;5.00;;;;;37.10;42.52;101605.19;6369878;22;45622;-90
2022/06/17 17:09:38;;;;;;;;;7.67;7.67;;;;;37.03;43.16;101611.06;6336902;22;48250;-91
2022/06/17 17:12:04;;;;;;;;;7.00;6.00;;;;;36.90;43.68;101606.25;6337758;22;45238;-92
2022/06/17 17:14:30;;;;;;;;;5.33;5.00;;;;;36.82;43.53;101612.09;6336522;22;45708;-93
2022/06/17 17:16:55;;;;;;;;;7.33;7.00;;;;;36.74;43.04;101620.72;6337056;22;45699;-90
2022/06/17 17:19:21;;;;;;;;;8.33;7.00;;;;;36.66;43.28;101625.69;6360403;22;46294;-90
2022/06/17 17:21:50;;;;;;;;;6.00;6.00;;;;;36.60;43.15;101628.75;6364081;22;45515;-89
2022/06/17 17:24:22;;;;;;;;;8.33;8.33;;;;;36.49;43.44;101626.59;6364885;22;45498;-90
2022/06/17 17:26:52;;;;;;;;;9.00;7.33;;;;;36.44;43.15;101621.38;6369719;22;45284;-92
2022/06/17 17:29:19;;;;;;;;;8.00;7.67;;;;;36.42;43.76;101632.34;6337264;22;47143;-91
2022/06/17 17:31:46;;;;;;;;;11.33;11.33;;;;;36.34;44.59;101618.16;6364492;22;45252;-92
2022/06/17 17:34:12;;;;;;;;;14.00;14.00;;;;;36.26;45.61;101612.22;6363707;22;45336;-91
2022/06/17 17:36:37;;;;;;;;;16.00;14.00;;;;;36.18;46.59;101618.09;6365673;22;45294;-95
2022/06/17 17:39:03;;;;;;;;;10.00;10.00;;;;;36.14;45.46;101635.56;6338350;22;46906;-96
2022/06/17 17:41:33;;;;;;;;;6.33;6.33;;;;;35.99;46.28;101619.88;6338097;22;45664;-93
2022/06/17 17:44:04;;;;;;;;;7.00;7.00;;;;;35.88;46.66;101617.69;6339881;22;45335;-94
2022/06/17 17:46:32;;;;;;;;;14.00;10.33;;;;;35.83;46.36;101621.56;6338418;22;45315;-94
2022/06/17 17:48:58;;;;;;;;;15.00;15.00;;;;;35.75;46.02;101622.81;6337575;22;48055;-92
2022/06/17 17:51:24;;;;;;;;;19.00;15.67;;;;;35.66;45.88;101629.63;6339196;22;45268;-88
2022/06/17 17:53:50;;;;;;;;;7.00;7.00;;;;;35.60;45.88;101632.63;6341816;22;45220;-94
2022/06/17 17:56:17;;;;;;;;;6.67;6.67;;;;;35.54;45.49;101635.63;6341664;22;45363;-93
2022/06/17 17:58:43;;;;;;;;;7.33;5.33;;;;;35.49;45.85;101629.53;6366384;22;45996;-94
2022/06/17 18:01:23;;;;;;;;;7.33;6.00;;;;;35.41;45.47;101619.00;6338105;22;45417;-94
2022/06/17 18:03:50;;;;;;;;;6.00;6.00;;;;;35.41;45.67;101624.44;6337570;22;45377;-93
2022/06/17 18:06:18;;;;;;;;;7.67;7.33;;;;;35.36;45.43;101635.50;6338908;22;45457;-94
2022/06/17 18:08:44;;;;;;;;;18.75;17.50;;;;;35.25;46.39;101625.13;6337212;22;48271;-93
2022/06/17 18:11:12;;;;;;;;;8.00;8.00;;;;;35.21;46.59;101634.38;6365687;22;45717;-94
2022/06/17 18:13:38;;;;;;;;;7.00;7.00;;;;;35.14;46.54;101639.25;6334724;22;45462;-93
2022/06/17 18:16:04;;;;;;;;;6.00;5.00;;;;;35.07;46.37;101630.47;6335850;22;45372;-92
2022/06/17 18:18:31;;;;;;;;;6.00;6.00;;;;;35.02;46.08;101637.97;6341677;22;46955;-93
2022/06/17 18:20:57;;;;;;;;;6.00;6.00;;;;;34.93;45.57;101628.34;6341741;22;45199;-93
2022/06/17 18:23:23;;;;;;;;;4.00;4.00;;;;;34.93;47.15;101631.06;6338425;22;45622;-94
2022/06/17 18:25:49;;;;;;;;;4.67;4.33;;;;;34.85;46.42;101627.81;6339451;22;45383;-94
2022/06/17 18:28:15;;;;;;;;;4.00;4.00;;;;;34.82;46.76;101634.25;6336921;22;47308;-94
2022/06/17 18:30:40;;;;;;;;;6.67;6.00;;;;;34.72;46.43;101628.31;6336583;22;45786;-93
2022/06/17 18:33:05;;;;;;;;;8.33;7.00;;;;;34.73;47.36;101632.81;6366074;22;45736;-95
2022/06/17 18:35:33;;;;;;;;;3.67;3.67;;;;;34.63;47.24;101624.16;6338037;22;45359;-95
2022/06/17 18:37:59;;;;;;;;;5.67;5.67;;;;;34.58;47.33;101626.19;6338753;22;48509;-96
2022/06/17 18:40:29;;;;;;;;;6.67;5.00;;;;;34.57;47.65;101627.16;6337731;22;45740;-94
2022/06/17 18:42:54;;;;;;;;;6.67;5.00;;;;;34.47;47.90;101618.47;6338035;22;45537;-93
2022/06/17 18:45:24;;;;;;;;;5.00;5.00;;;;;34.44;48.25;101626.78;6335991;22;47891;-93
2022/06/17 18:47:50;;;;;;;;;6.00;6.00;;;;;34.34;48.35;101616.28;6338338;22;47112;-96
2022/06/17 18:50:18;;;;;;;;;8.00;6.33;;;;;34.32;48.23;101626.38;6337340;22;45281;-96
2022/06/17 18:52:44;;;;;;;;;5.33;5.00;;;;;34.25;48.42;101610.31;6337554;22;45284;-95
2022/06/17 18:55:11;;;;;;;;;4.00;4.00;;;;;34.18;48.45;101613.28;6337894;22;45370;-94
2022/06/17 18:57:38;;;;;;;;;5.33;4.67;;;;;34.08;48.93;101607.34;6336484;22;48733;-95
2022/06/17 19:00:05;;;;;;;;;5.33;5.33;;;;;34.03;49.97;101606.63;6335888;22;45778;-94
2022/06/17 19:02:32;;;;;;;;;5.00;5.00;;;;;33.94;49.72;101605.16;6338025;22;45230;-94
2022/06/17 19:04:58;;;;;;;;;10.33;9.33;;;;;33.89;50.16;101601.75;6337025;22;45384;-95
2022/06/17 19:07:25;;;;;;;;;6.00;6.00;;;;;33.83;49.74;101607.44;6337220;22;48108;-93
2022/06/17 19:18:13;;;;;;;;;10.67;10.67;;;;;33.46;52.94;101588.88;6372009;22;45268;-92
2022/06/17 19:20:40;;;;;;;;;13.67;12.00;;;;;33.37;52.93;101590.13;6366569;22;45333;-92
2022/06/17 19:23:11;;;;;;;;;12.33;11.67;;;;;33.27;53.81;101580.53;6339025;22;45352;-91
2022/06/17 19:25:37;;;;;;;;;9.00;8.00;;;;;33.22;54.01;101586.13;6337530;22;45529;-93
2022/06/17 19:28:03;;;;;;;;;10.00;9.00;;;;;33.10;54.17;101577.47;6341260;22;47235;-93
2022/06/17 19:30:30;;;;;;;;;10.00;9.33;;;;;33.04;54.19;101577.69;6337331;22;45288;-92
2022/06/17 19:32:58;;;;;;;;;11.67;10.00;;;;;32.99;54.38;101576.97;6345157;22;45367;-91
2022/06/17 19:35:32;;;;;;;;;10.00;10.00;;;;;32.91;54.85;101577.25;6411260;22;44842;-91
2022/06/17 19:40:33;;;;;;;;;6.00;6.00;;;;;32.75;55.13;101576.94;6357421;22;44895;-89
2022/06/17 19:43:00;;;;;;;;;7.67;7.67;;;;;32.69;54.89;101582.59;6336500;22;44825;-91
2022/06/17 19:50:37;;;;;;;;;8.00;8.00;;;;;32.47;56.26;101580.59;6340892;22;45940;-91
2022/06/17 19:55:38;;;;;;;;;7.67;6.33;;;;;32.23;56.30;101562.38;6339417;22;44866;-91
2022/06/17 19:58:17;;;;;;;;;11.33;9.33;;;;;32.19;56.55;101560.69;6307865;22;47033;-89
2022/06/17 20:00:43;;;;;;;;;9.67;9.00;;;;;32.19;56.63;101572.44;6333559;22;45305;-91
2022/06/17 20:03:31;;;;;;;;;11.67;10.67;;;;;32.17;56.88;101578.84;6351349;22;44763;-91
2022/06/17 20:05:56;;;;;;;;;11.67;10.00;;;;;32.02;57.09;101562.13;6357350;22;44767;-89
2022/06/17 20:08:22;;;;;;;;;9.00;8.00;;;;;32.04;57.67;101571.09;6322949;22;47695;-89
2022/06/17 20:10:47;;;;;;;;;9.33;9.33;;;;;31.97;57.38;101570.41;6352151;22;45419;-90
2022/06/17 20:13:12;;;;;;;;;12.33;11.00;;;;;31.90;57.62;101566.13;6322877;22;45269;-89
2022/06/17 20:15:38;;;;;;;;;15.33;15.33;;;;;31.85;57.62;101562.69;6349524;22;45522;-91
2022/06/17 20:18:06;;;;;;;;;13.67;12.67;;;;;31.82;58.03;101579.94;6323411;22;47932;-89
2022/06/17 20:20:36;;;;;;;;;14.33;12.00;;;;;31.77;57.78;101579.19;6323036;22;45238;-90
2022/06/17 20:23:01;;;;;;;;;11.00;11.00;;;;;31.70;58.13;101574.91;6313732;22;45371;-87
2022/06/17 20:25:32;;;;;;;;;13.00;13.00;;;;;31.63;57.95;101580.50;6339515;22;45341;-89
2022/06/17 20:27:58;;;;;;;;;14.00;11.00;;;;;31.61;57.90;101581.50;6343041;22;45347;-91
2022/06/17 20:30:24;;;;;;;;;17.00;17.00;;;;;31.55;57.47;101583.47;6319207;22;45373;-90
2022/06/17 20:32:50;;;;;;;;;11.67;11.67;;;;;31.50;58.21;101582.69;6304926;22;44603;-90
2022/06/17 20:35:16;;;;;;;;;13.67;13.00;;;;;31.44;57.98;101580.16;6359599;22;45251;-90
2022/06/17 20:37:45;;;;;;;;;12.33;12.33;;;;;31.42;58.38;101590.16;6306467;22;47166;-90
2022/06/17 20:40:21;;;;;;;;;14.00;14.00;;;;;31.35;58.64;101586.75;6264569;22;45217;-92
2022/06/17 20:42:47;;;;;;;;;16.00;13.00;;;;;31.30;58.61;101585.97;6336194;22;45831;-94
2022/06/17 20:51:09;;;;;;;;;12.67;11.00;;;;;31.11;58.41;101597.34;6335437;22;45382;-90
2022/06/17 20:53:36;;;;;;;;;18.33;14.67;;;;;31.05;58.64;101586.69;6306740;22;45374;-90
2022/06/17 20:56:11;;;;;;;;;11.00;11.00;;;;;31.02;58.88;101584.97;6300813;22;45568;-90
2022/06/17 20:58:36;;;;;;;;;16.33;15.00;;;;;30.95;58.79;101586.94;6312373;22;45443;-90
2022/06/17 21:01:04;;;;;;;;;13.33;11.67;;;;;30.91;58.94;101590.66;6308655;22;57747;-90
2022/06/17 21:03:33;;;;;;;;;12.00;12.00;;;;;30.86;59.28;101582.66;6305624;22;45451;-90
2022/06/17 21:06:02;;;;;;;;;12.00;11.00;;;;;30.83;59.39;101576.41;6276642;22;45351;-90
2022/06/17 21:08:31;;;;;;;;;13.00;12.00;;;;;30.78;59.61;101576.53;6305898;22;45945;-90
2022/06/17 21:10:59;;;;;;;;;15.33;12.00;;;;;30.73;60.31;101575.78;6310032;22;45347;-90
2022/06/17 21:13:29;;;;;;;;;11.00;10.00;;;;;30.69;60.24;101580.41;6309354;22;45426;-90
2022/06/17 21:15:55;;;;;;;;;13.00;13.00;;;;;30.65;60.07;101575.97;6299966;22;45537;-91
2022/06/17 21:18:21;;;;;;;;;14.00;13.00;;;;;30.58;60.75;101574.38;6303540;22;45344;-93
2022/06/17 21:20:50;;;;;;;;;13.67;13.67;;;;;30.55;60.73;101568.09;6302992;22;45360;-94
2022/06/17 21:23:29;;;;;;;;;13.00;13.00;;;;;30.51;60.83;101565.53;6304104;22;45383;-92
2022/06/17 21:25:55;;;;;;;;;12.00;11.33;;;;;30.47;60.95;101564.69;6307081;22;45293;-91
2022/06/17 21:28:25;;;;;;;;;17.67;12.33;;;;;30.39;61.11;101554.06;6325162;22;46910;-91
2022/06/17 21:30:53;;;;;;;;;11.67;11.67;;;;;30.39;61.20;101561.28;6298418;22;45284;-90
2022/06/17 21:33:18;;;;;;;;;12.67;12.00;;;;;30.32;61.09;101547.94;6300166;22;45295;-90
2022/06/17 21:35:47;;;;;;;;;14.67;12.00;;;;;30.31;61.50;101543.41;6301029;22;45625;-91
2022/06/17 21:38:20;;;;;;;;;13.67;12.00;;;;;30.31;61.82;101550.63;6302331;22;46174;-92
2022/06/17 21:40:48;;;;;;;;;12.00;11.00;;;;;30.24;62.09;101533.66;6301611;22;45772;-92
2022/06/17 21:43:25;;;;;;;;;12.00;12.00;;;;;30.21;62.07;101542.75;6299374;22;45771;-91
2022/06/17 21:45:51;;;;;;;;;12.00;11.00;;;;;30.18;62.29;101536.50;6300508;22;45411;-91
2022/06/17 21:48:17;;;;;;;;;10.67;9.33;;;;;30.13;62.54;101535.78;6301120;22;45404;-91
2022/06/17 21:50:48;;;;;;;;;8.67;8.67;;;;;30.10;62.81;101534.03;6299723;22;46687;-92
